.
WxDataArchive / Data Records for 2007-08-17
2007-08-16 August 2007 2007-08-18

Data Records for Friday, 17 August 2007

Time	Temp	Chill	HIndex	Humid	Dewpt	 Wind 	HiWind	WindDir	Rain 	Barom 
-----	----	-----	------	-----	-----	------	------	-------	-----	----- 
00:00	66.6	66.6	66.6	94	64.8	0	1	292	0.00	29.945 
00:05	66.4	66.4	66.4	94	64.6	0	0	---	0.00	29.944 
00:10	66.3	66.3	66.3	94	64.5	0	0	---	0.00	29.945 
00:15	66.1	66.1	66.1	94	64.3	0	0	---	0.00	29.944 
00:20	66.1	66.1	66.1	95	64.6	0	1	292	0.00	29.945 
00:25	66.0	66.0	66.0	95	64.5	0	0	---	0.00	29.948 
00:30	65.8	65.8	65.8	95	64.3	0	0	---	0.00	29.948 
00:35	65.6	65.6	65.6	95	64.1	0	0	---	0.00	29.948 
00:40	65.5	65.5	65.5	95	64.0	0	0	---	0.00	29.945 
00:45	65.3	65.3	65.3	95	63.8	0	0	---	0.00	29.945 
00:50	65.2	65.2	65.2	95	63.7	0	0	---	0.00	29.944 
00:55	65.0	65.0	65.0	95	63.5	0	0	---	0.00	29.943 
01:00	64.8	64.8	64.8	95	63.3	0	0	---	0.00	29.943 
01:05	64.7	64.7	64.7	95	63.2	0	0	---	0.00	29.943 
01:10	64.5	64.5	64.5	95	63.0	0	0	---	0.00	29.943 
01:15	64.3	64.3	64.3	95	62.8	0	0	---	0.00	29.942 
01:20	64.3	64.3	64.3	96	63.1	0	0	---	0.00	29.943 
01:25	64.2	64.2	64.2	96	63.0	0	0	---	0.00	29.943 
01:30	64.2	64.2	64.2	96	63.0	0	0	---	0.00	29.943 
01:35	64.0	64.0	64.0	96	62.8	0	0	---	0.00	29.943 
01:40	64.0	64.0	64.0	96	62.8	0	0	---	0.00	29.943 
01:45	64.0	64.0	64.0	96	62.8	0	0	---	0.00	29.943 
01:50	64.0	64.0	64.0	96	62.8	0	0	---	0.00	29.943 
01:55	64.0	64.0	64.0	96	62.8	0	0	---	0.00	29.943 
02:00	64.0	64.0	64.0	96	62.8	0	0	---	0.00	29.943 
02:05	63.9	63.9	63.9	96	62.7	0	0	---	0.00	29.943 
02:10	63.9	63.9	63.9	96	62.7	0	0	---	0.00	29.943 
02:15	63.7	63.7	63.7	96	62.5	0	0	---	0.00	29.945 
02:20	63.7	63.7	63.7	95	62.2	0	1	292	0.00	29.946 
02:25	63.5	63.5	63.5	95	62.0	0	0	---	0.00	29.948 
02:30	63.5	63.5	63.5	95	62.0	0	0	---	0.00	29.950 
02:35	63.4	63.4	63.4	95	61.9	0	0	---	0.00	29.951 
02:40	63.4	63.4	63.4	95	61.9	0	0	---	0.00	29.950 
02:45	63.2	63.2	63.2	95	61.7	0	0	---	0.00	29.948 
02:50	63.2	63.2	63.2	95	61.7	0	0	---	0.00	29.950 
02:55	63.1	63.1	63.1	94	61.3	0	0	---	0.00	29.947 
03:00	63.1	63.1	63.1	94	61.3	0	0	---	0.00	29.946 
03:05	62.9	62.9	62.9	94	61.1	0	0	---	0.00	29.949 
03:10	62.9	62.9	62.9	94	61.1	0	0	---	0.00	29.948 
03:15	62.7	62.7	62.7	94	60.9	0	0	---	0.00	29.947 
03:20	62.7	62.7	62.7	94	60.9	0	0	---	0.00	29.947 
03:25	62.7	62.7	62.7	94	60.9	0	0	---	0.00	29.945 
03:30	62.6	62.6	62.6	93	60.5	0	0	---	0.00	29.945 
03:35	62.6	62.6	62.6	93	60.5	0	0	---	0.00	29.948 
03:40	62.4	62.4	62.4	93	60.3	0	0	---	0.00	29.956 
03:45	62.4	62.4	62.4	93	60.3	0	0	---	0.00	29.957 
03:50	62.3	62.3	62.3	93	60.2	0	0	---	0.00	29.958 
03:55	62.1	62.1	62.1	93	60.0	0	0	---	0.00	29.960 
04:00	62.0	62.0	62.0	93	59.9	0	0	---	0.00	29.960 
04:05	61.8	61.8	61.8	93	59.8	0	0	---	0.00	29.960 
04:10	61.6	61.6	61.6	93	59.6	0	0	---	0.00	29.961 
04:15	61.5	61.5	61.5	93	59.5	0	0	---	0.00	29.960 
04:20	61.3	61.3	61.3	92	59.0	0	0	---	0.00	29.963 
04:25	61.3	61.3	61.3	92	59.0	0	0	---	0.00	29.963 
04:30	61.3	61.3	61.3	91	58.6	0	0	---	0.00	29.963 
04:35	61.2	61.2	61.2	91	58.5	0	0	---	0.00	29.963 
04:40	61.0	61.0	61.0	90	58.0	0	0	---	0.00	29.963 
04:45	60.7	60.7	60.7	90	57.7	0	0	---	0.00	29.964 
04:50	60.5	60.5	60.5	90	57.5	0	0	---	0.00	29.964 
04:55	60.2	60.2	60.2	90	57.3	0	0	---	0.00	29.964 
05:00	60.1	60.1	60.1	90	57.2	0	0	---	0.00	29.963 
05:05	59.8	59.8	59.8	90	56.9	0	0	---	0.00	29.963 
05:10	59.6	59.6	59.6	91	57.0	0	0	---	0.00	29.964 
05:15	59.5	59.5	59.5	91	56.9	0	0	---	0.00	29.966 
05:20	59.2	59.2	59.2	91	56.6	0	0	---	0.00	29.968 
05:25	59.0	59.0	59.0	92	56.7	0	0	---	0.01	29.972 
05:30	58.9	58.9	58.9	92	56.6	0	0	---	0.00	29.976 
05:35	58.6	58.6	58.6	92	56.3	0	0	---	0.00	29.976 
05:40	58.4	58.4	58.4	92	56.1	0	0	---	0.00	29.976 
05:45	58.3	58.3	58.3	92	56.0	0	0	---	0.00	29.977 
05:50	58.1	58.1	58.1	92	55.8	0	0	---	0.00	29.977 
05:55	58.1	58.1	58.1	93	56.1	0	0	---	0.00	29.980 
06:00	58.0	58.0	58.0	93	56.0	0	0	---	0.00	29.981 
06:05	58.0	58.0	58.0	93	56.0	0	0	---	0.00	29.983 
06:10	57.8	57.8	57.8	94	56.1	0	0	---	0.00	29.985 
06:15	57.8	57.8	57.8	94	56.1	0	0	---	0.00	29.985 
06:20	57.8	57.8	57.8	94	56.1	0	0	---	0.00	29.984 
06:25	58.1	58.1	58.1	95	56.7	0	0	---	0.00	29.983 
06:30	58.3	58.3	58.3	95	56.9	0	0	---	0.00	29.983 
06:35	58.4	58.4	58.4	95	57.0	0	0	---	0.00	29.982 
06:40	58.7	58.7	58.7	95	57.3	0	0	---	0.00	29.983 
06:45	59.2	59.2	59.2	95	57.8	0	0	---	0.00	29.986 
06:50	59.6	59.6	59.6	95	58.2	0	0	---	0.00	29.987 
06:55	60.1	60.1	60.1	95	58.7	0	1	292	0.00	29.990 
07:00	60.5	60.5	60.5	93	58.5	0	1	292	0.00	29.992 
07:05	61.6	61.6	61.6	90	58.6	0	1	292	0.00	29.995 
07:10	62.4	62.4	62.4	86	58.2	0	1	292	0.00	29.994 
07:15	63.4	63.4	63.4	83	58.1	0	1	292	0.00	29.995 
07:20	64.0	64.0	64.0	82	58.4	1	3	292	0.00	29.994 
07:25	64.5	64.5	64.5	81	58.5	1	3	292	0.00	29.994 
07:30	65.2	65.2	65.2	81	59.2	0	1	292	0.00	29.994 
07:35	65.6	65.6	65.6	81	59.6	1	3	292	0.00	29.993 
07:40	66.3	66.3	66.3	81	60.3	1	3	292	0.00	29.993 
07:45	66.9	66.9	66.9	81	60.9	1	4	315	0.00	29.996 
07:50	67.3	67.3	67.3	81	61.3	1	2	315	0.00	29.999 
07:55	67.8	67.8	67.8	80	61.4	1	2	315	0.00	30.000 
08:00	68.3	68.3	68.3	80	61.9	1	3	292	0.00	30.002 
08:05	68.8	68.8	68.8	80	62.4	1	3	270	0.00	30.000 
08:10	69.1	69.1	69.1	79	62.3	1	4	338	0.00	30.000 
08:15	69.6	69.6	69.6	78	62.4	1	2	315	0.00	30.002 
08:20	69.9	69.9	69.9	77	62.3	1	3	315	0.00	30.001 
08:25	70.3	70.3	70.3	76	62.4	1	4	315	0.00	30.001 
08:30	70.6	70.6	70.6	76	62.7	1	2	315	0.00	29.999 
08:35	70.8	70.8	70.8	75	62.5	1	5	315	0.00	30.000 
08:40	71.1	71.1	71.1	75	62.8	1	3	270	0.00	29.998 
08:45	71.6	71.6	71.6	75	63.2	1	5	248	0.00	29.997 
08:50	72.0	72.0	72.0	73	62.9	1	3	270	0.00	29.997 
08:55	72.3	72.3	72.3	72	62.8	1	5	315	0.00	29.996 
09:00	72.5	72.5	72.5	72	62.9	2	4	270	0.00	29.995 
09:05	72.7	72.7	72.7	71	62.7	1	2	270	0.00	29.996 
09:10	73.0	73.0	73.0	70	62.6	1	3	292	0.00	29.996 
09:15	73.3	73.3	73.3	69	62.5	1	4	338	0.00	29.997 
09:20	73.9	73.9	73.9	69	63.1	1	3	270	0.00	29.995 
09:25	74.2	74.2	74.2	68	62.9	0	2	22	0.00	29.995 
09:30	74.6	74.6	74.6	66	62.5	1	2	338	0.00	29.992 
09:35	74.7	74.7	74.7	64	61.7	2	4	270	0.00	29.994 
09:40	74.9	74.9	74.9	65	62.3	1	3	315	0.00	29.996 
09:45	75.1	75.1	77.1	66	62.9	2	3	292	0.00	29.999 
09:50	75.4	75.4	77.5	62	61.5	1	3	315	0.00	29.999 
09:55	75.8	75.8	77.8	61	61.4	1	3	315	0.00	30.000 
10:00	76.1	76.1	78.1	61	61.7	1	3	292	0.00	30.000 
10:05	76.0	76.0	78.0	62	62.0	2	5	315	0.00	30.002 
10:10	76.1	76.1	78.0	64	63.0	1	3	270	0.00	30.004 
10:15	76.5	76.5	78.4	62	62.5	1	3	338	0.00	30.004 
10:20	76.7	76.7	78.5	62	62.7	1	2	270	0.00	30.004 
10:25	77.0	77.0	78.8	59	61.6	2	4	270	0.00	30.003 
10:30	77.2	77.2	78.9	58	61.3	1	3	292	0.00	30.002 
10:35	77.2	77.2	78.9	58	61.3	1	3	292	0.00	29.999 
10:40	77.4	77.4	79.0	55	59.9	1	4	292	0.00	30.004 
10:45	77.6	77.6	79.1	54	59.6	1	3	292	0.00	30.001 
10:50	78.1	78.1	79.5	55	60.6	0	2	292	0.00	29.995 
10:55	77.7	77.7	79.2	53	59.2	2	3	315	0.00	29.999 
11:00	77.7	77.7	79.2	53	59.2	1	3	292	0.00	29.999 
11:05	78.1	78.1	79.5	54	60.1	3	5	270	0.00	30.001 
11:10	78.1	78.1	79.5	53	59.6	2	4	292	0.00	30.000 
11:15	78.3	78.3	79.6	52	59.2	2	4	270	0.00	29.998 
11:20	78.6	78.6	79.8	53	60.0	1	4	315	0.00	29.997 
11:25	78.5	78.5	79.6	51	58.8	2	6	270	0.00	29.997 
11:30	78.3	78.3	79.6	53	59.7	1	4	315	0.00	29.997 
11:35	78.6	78.6	79.7	50	58.4	2	5	270	0.00	29.996 
11:40	78.8	78.8	79.9	52	59.7	2	5	315	0.00	29.999 
11:45	78.8	78.8	79.9	51	59.1	2	5	292	0.00	29.999 
11:50	79.2	79.2	80.3	52	60.0	1	3	315	0.00	30.000 
11:55	79.0	79.0	80.0	51	59.3	3	5	292	0.00	30.003 
12:00	79.2	79.2	80.1	49	58.4	2	4	270	0.00	30.002 
12:05	78.6	78.6	79.8	52	59.5	2	4	292	0.00	30.005 
12:10	79.0	79.0	80.0	51	59.3	3	7	270	0.00	30.004 
12:15	79.0	79.0	80.0	50	58.7	3	7	270	0.00	30.005 
12:20	79.2	79.2	80.3	52	60.0	3	7	270	0.00	30.003 
12:25	79.2	79.2	80.1	50	58.9	3	9	270	0.00	30.002 
12:30	79.2	79.2	80.2	51	59.5	2	5	338	0.00	29.996 
12:35	78.8	78.8	80.0	53	60.2	3	5	270	0.00	30.000 
12:40	78.5	78.5	79.7	52	59.4	2	6	315	0.00	29.998 
12:45	78.8	78.8	79.9	51	59.1	2	6	315	0.00	29.993 
12:50	78.8	78.8	79.7	49	58.0	3	7	270	0.00	29.991 
12:55	79.0	79.0	80.0	50	58.7	2	5	292	0.00	29.991 
13:00	79.2	79.2	80.1	50	58.9	3	7	315	0.00	29.989 
13:05	79.0	79.0	80.0	51	59.3	3	6	315	0.00	29.992 
13:10	79.4	79.4	80.3	50	59.1	3	6	270	0.00	29.992 
13:15	79.8	79.8	80.7	51	60.0	3	6	270	0.00	29.990 
13:20	80.1	80.1	80.7	48	58.6	3	5	270	0.00	29.989 
13:25	79.6	79.6	80.3	48	58.2	3	8	315	0.00	29.991 
13:30	79.4	79.4	80.5	52	60.2	3	5	270	0.00	29.991 
13:35	79.8	79.8	80.7	51	60.0	3	7	292	0.00	29.989 
13:40	79.9	79.9	80.9	52	60.7	3	5	270	0.00	29.990 
13:45	79.6	79.6	80.5	50	59.3	2	5	315	0.00	29.988 
13:50	79.2	79.2	80.1	49	58.4	2	5	315	0.00	29.991 
13:55	79.0	79.0	80.0	51	59.3	3	6	315	0.00	29.992 
14:00	78.8	78.8	79.7	48	57.4	3	7	315	0.00	29.992 
14:05	78.3	78.3	79.4	50	58.1	2	5	270	0.00	29.993 
14:10	79.0	79.0	79.7	46	56.4	2	6	270	0.00	29.992 
14:15	79.0	79.0	79.6	45	55.8	2	4	292	0.00	29.992 
14:20	78.3	78.3	79.3	48	57.0	3	7	315	0.00	29.993 
14:25	78.5	78.5	79.5	48	57.2	2	4	292	0.00	29.992 
14:30	78.8	78.8	79.6	46	56.2	3	7	270	0.00	29.991 
14:35	79.2	79.2	79.8	45	56.0	3	5	315	0.00	29.991 
14:40	79.4	79.4	79.8	43	54.9	3	7	315	0.00	29.992 
14:45	79.6	79.6	80.0	45	56.4	4	6	270	0.00	29.992 
14:50	79.9	79.9	80.2	44	56.0	3	6	270	0.00	29.991 
14:55	79.9	79.9	80.1	43	55.4	2	6	315	0.00	29.994 
15:00	79.6	79.6	79.9	43	55.1	3	5	315	0.00	29.995 
15:05	79.0	79.0	79.6	44	55.2	2	5	315	0.00	29.997 
15:10	79.2	79.2	79.8	45	56.0	3	6	270	0.00	30.002 
15:15	79.2	79.2	79.6	43	54.7	3	5	270	0.00	30.000 
15:20	79.2	79.2	79.8	45	56.0	2	5	315	0.00	30.000 
15:25	79.0	79.0	79.4	42	53.9	4	7	270	0.00	30.002 
15:30	78.6	78.6	79.3	44	54.8	3	5	315	0.00	30.006 
15:35	78.3	78.3	79.0	42	53.3	4	12	270	0.00	30.002 
15:40	78.5	78.5	79.1	42	53.5	2	5	270	0.00	30.006 
15:45	78.3	78.3	79.0	42	53.3	2	5	338	0.00	30.005 
15:50	78.3	78.3	79.1	44	54.6	2	4	292	0.00	30.004 
15:55	77.9	77.9	78.8	42	52.9	3	11	315	0.00	30.004 
16:00	77.7	77.7	78.7	42	52.8	3	10	315	0.00	30.004 
16:05	77.9	77.9	78.6	39	50.9	3	7	270	0.00	30.006 
16:10	77.7	77.7	78.6	40	51.4	2	5	270	0.00	30.011 
16:15	77.6	77.6	78.7	43	53.3	2	4	315	0.00	30.009 
16:20	77.7	77.7	78.7	42	52.8	2	5	315	0.00	30.010 
16:25	77.7	77.7	78.7	42	52.8	2	5	315	0.00	30.012 
16:30	77.2	77.2	78.2	38	49.6	3	5	315	0.00	30.014 
16:35	77.2	77.2	78.3	40	51.0	1	3	315	0.00	30.014 
16:40	76.8	76.8	78.0	37	48.5	3	6	292	0.00	30.017 
16:45	76.5	76.5	78.0	39	49.7	3	6	292	0.00	30.020 
16:50	76.5	76.5	78.0	39	49.7	2	7	292	0.00	30.022 
16:55	76.5	76.5	77.8	36	47.5	2	10	315	0.00	30.028 
17:00	76.3	76.3	77.9	39	49.5	3	6	292	0.00	30.028 
17:05	76.0	76.0	77.8	40	49.9	3	5	315	0.00	30.030 
17:10	75.8	75.8	77.7	38	48.4	3	6	315	0.00	30.030 
17:15	75.6	75.6	77.6	38	48.2	3	6	315	0.00	30.031 
17:20	75.6	75.6	77.6	38	48.2	2	5	315	0.00	30.033 
17:25	75.4	75.4	77.6	40	49.4	2	5	315	0.00	30.034 
17:30	75.3	75.3	77.5	39	48.6	2	5	315	0.00	30.035 
17:35	75.3	75.3	77.6	40	49.3	2	6	270	0.00	30.035 
17:40	75.1	75.1	77.6	43	51.1	2	5	315	0.00	30.035 
17:45	74.7	74.7	74.7	45	51.9	1	3	270	0.00	30.034 
17:50	74.4	74.4	74.4	45	51.7	1	3	315	0.00	30.033 
17:55	73.9	73.9	73.9	45	51.2	1	5	292	0.00	30.033 
18:00	73.5	73.5	73.5	45	50.8	1	4	292	0.00	30.037 
18:05	73.2	73.2	73.2	46	51.2	1	3	338	0.00	30.034 
18:10	72.8	72.8	72.8	45	50.2	1	4	292	0.00	30.038 
18:15	72.5	72.5	72.5	43	48.7	1	3	338	0.00	30.040 
18:20	72.3	72.3	72.3	43	48.5	1	4	338	0.00	30.046 
18:25	72.1	72.1	72.1	43	48.4	1	3	292	0.00	30.048 
18:30	71.8	71.8	71.8	42	47.5	1	3	338	0.00	30.051 
18:35	71.5	71.5	71.5	43	47.8	1	4	22	0.00	30.051 
18:40	71.1	71.1	71.1	42	46.8	1	2	0	0.00	30.052 
18:45	70.9	70.9	70.9	42	46.6	1	3	292	0.00	30.050 
18:50	70.6	70.6	70.6	43	47.0	0	1	315	0.00	30.050 
18:55	70.3	70.3	70.3	43	46.7	0	1	315	0.00	30.053 
19:00	69.9	69.9	69.9	42	45.8	1	3	315	0.00	30.054 
19:05	69.6	69.6	69.6	45	47.3	0	1	270	0.00	30.052 
19:10	69.3	69.3	69.3	44	46.4	0	1	292	0.00	30.058 
19:15	68.8	68.8	68.8	45	46.6	0	1	292	0.00	30.058 
19:20	68.6	68.6	68.6	46	47.0	0	2	315	0.00	30.060 
19:25	68.3	68.3	68.3	46	46.7	0	4	292	0.00	30.062 
19:30	67.9	67.9	67.9	47	46.9	0	1	292	0.00	30.061 
19:35	67.6	67.6	67.6	48	47.2	0	1	292	0.00	30.062 
19:40	67.4	67.4	67.4	48	47.0	0	1	292	0.00	30.064 
19:45	67.1	67.1	67.1	49	47.3	0	1	292	0.00	30.066 
19:50	66.8	66.8	66.8	51	48.1	0	1	292	0.00	30.067 
19:55	66.3	66.3	66.3	52	48.1	0	0	---	0.00	30.066 
20:00	65.8	65.8	65.8	52	47.7	0	0	---	0.00	30.067 
20:05	65.5	65.5	65.5	54	48.4	0	0	---	0.00	30.071 
20:10	65.2	65.2	65.2	54	48.1	0	0	---	0.00	30.072 
20:15	64.8	64.8	64.8	56	48.7	0	0	---	0.00	30.072 
20:20	64.5	64.5	64.5	56	48.4	0	0	---	0.00	30.074 
20:25	64.3	64.3	64.3	57	48.7	0	0	---	0.00	30.079 
20:30	64.0	64.0	64.0	57	48.5	0	0	---	0.00	30.083 
20:35	63.9	63.9	63.9	57	48.4	0	1	292	0.00	30.088 
20:40	63.9	63.9	63.9	57	48.4	0	1	292	0.00	30.089 
20:45	63.7	63.7	63.7	57	48.2	0	1	292	0.00	30.092 
20:50	63.7	63.7	63.7	56	47.7	0	1	292	0.00	30.091 
20:55	63.5	63.5	63.5	57	48.0	0	0	---	0.00	30.092 
21:00	63.2	63.2	63.2	57	47.7	0	1	292	0.00	30.095 
21:05	63.1	63.1	63.1	58	48.1	0	1	292	0.00	30.096 
21:10	62.9	62.9	62.9	58	47.9	0	0	---	0.00	30.093 
21:15	62.7	62.7	62.7	58	47.7	0	0	---	0.00	30.094 
21:20	62.6	62.6	62.6	58	47.6	0	1	292	0.00	30.098 
21:25	62.6	62.6	62.6	58	47.6	0	1	292	0.00	30.102 
21:30	62.4	62.4	62.4	59	47.9	0	0	---	0.00	30.100 
21:35	62.1	62.1	62.1	60	48.0	0	0	---	0.00	30.100 
21:40	61.8	61.8	61.8	60	47.8	0	0	---	0.00	30.104 
21:45	61.6	61.6	61.6	61	48.0	0	0	---	0.00	30.100 
21:50	61.2	61.2	61.2	62	48.1	0	0	---	0.00	30.106 
21:55	60.9	60.9	60.9	63	48.2	0	0	---	0.00	30.107 
22:00	60.7	60.7	60.7	63	48.0	0	0	---	0.00	30.108 
22:05	60.7	60.7	60.7	64	48.4	0	0	---	0.00	30.107 
22:10	60.7	60.7	60.7	64	48.4	0	0	---	0.00	30.108 
22:15	60.5	60.5	60.5	64	48.3	0	0	---	0.00	30.109 
22:20	60.5	60.5	60.5	64	48.3	0	0	---	0.00	30.113 
22:25	60.5	60.5	60.5	64	48.3	0	0	---	0.00	30.116 
22:30	60.5	60.5	60.5	63	47.8	0	0	---	0.00	30.120 
22:35	60.2	60.2	60.2	64	48.0	0	0	---	0.00	30.114 
22:40	60.1	60.1	60.1	65	48.3	0	0	---	0.00	30.120 
22:45	59.8	59.8	59.8	65	48.0	0	0	---	0.00	30.121 
22:50	59.6	59.6	59.6	67	48.6	0	0	---	0.00	30.121 
22:55	59.3	59.3	59.3	67	48.3	0	0	---	0.00	30.123 
23:00	59.2	59.2	59.2	68	48.6	0	0	---	0.00	30.124 
23:05	59.0	59.0	59.0	67	48.1	0	0	---	0.00	30.122 
23:10	59.0	59.0	59.0	68	48.5	0	0	---	0.00	30.122 
23:15	58.9	58.9	58.9	69	48.7	0	0	---	0.00	30.121 
23:20	58.7	58.7	58.7	69	48.6	0	0	---	0.00	30.123 
23:25	58.6	58.6	58.6	69	48.5	0	0	---	0.00	30.123 
23:30	58.4	58.4	58.4	70	48.7	0	0	---	0.00	30.126 
23:35	58.1	58.1	58.1	70	48.4	0	0	---	0.00	30.126 
23:40	58.0	58.0	58.0	71	48.6	0	0	---	0.00	30.125 
23:45	57.6	57.6	57.6	70	47.9	0	0	---	0.00	30.129 
23:50	57.5	57.5	57.5	71	48.2	0	0	---	0.00	30.130 
23:55	57.2	57.2	57.2	73	48.6	0	0	---	0.00	30.136 

CoCoRaHS
IN-AL-39
A2 Web Hosting
Creative Commons License
GoDaddy
Look for:

loaded 2017-12-12 01:41:50 • last modified 2010-11-18 10:43:29
Privacy PolicyDisclaimer
• wx.awcolley.com is powered by PmWiki v.2002016 •
• all content (unless otherwise noted) © 2017 A W Colley